Time;durP1;ratioP1;P1;durP2;ratioP2;P2;SDS_P1;SDS_P2;PMS_P1;PMS_P2;Temp;Humidity;BMP_temperature;BMP_pressure;BME280_temperature;BME280_humidity;BME280_pressure;Samples;Min_cycle;Max_cycle;Signal;HPM_P1;HPM_P2
2023/07/10 00:00:52;;;;;;;18.90;13.90;;;22.80;99.90;;;;;;4996361;28;20465;-88
2023/07/10 00:03:19;;;;;;;20.17;13.90;;;22.70;99.90;;;;;;4996239;28;20057;-88
2023/07/10 00:05:45;;;;;;;19.65;13.45;;;22.70;99.90;;;;;;4980252;28;20104;-87
2023/07/10 00:08:10;;;;;;;18.17;13.20;;;22.70;99.90;;;;;;4980329;28;20485;-88
2023/07/10 00:10:36;;;;;;;16.27;12.48;;;22.70;99.90;;;;;;5016634;28;20457;-88
2023/07/10 00:13:02;;;;;;;22.67;14.32;;;22.70;99.90;;;;;;5000490;28;20065;-88
2023/07/10 00:15:29;;;;;;;17.65;13.50;;;22.70;99.90;;;;;;4984690;28;20030;-90
2023/07/10 00:17:54;;;;;;;22.02;13.32;;;22.70;99.90;;;;;;4984613;28;20053;-90
2023/07/10 00:20:23;;;;;;;20.13;13.63;;;22.60;99.90;;;;;;5001082;28;20057;-91
2023/07/10 00:22:50;;;;;;;21.15;13.57;;;22.60;99.90;;;;;;5000999;28;20025;-91
2023/07/10 00:25:17;;;;;;;19.13;13.82;;;22.60;99.90;;;;;;5000762;28;20101;-91
2023/07/10 00:27:44;;;;;;;18.63;12.57;;;22.60;99.90;;;;;;4984451;28;20469;-90
2023/07/10 00:30:22;;;;;;;19.27;12.52;;;22.50;99.90;;;;;;5018564;28;20029;-91
2023/07/10 00:32:53;;;;;;;15.90;11.35;;;22.50;99.90;;;;;;5001007;28;20029;-92
2023/07/10 00:35:21;;;;;;;18.55;11.93;;;22.50;99.90;;;;;;5001173;28;20021;-91
2023/07/10 00:38:01;;;;;;;16.60;12.02;;;22.50;99.90;;;;;;5000834;28;20112;-91
2023/07/10 00:40:30;;;;;;;18.30;12.77;;;22.50;99.90;;;;;;5000888;28;20053;-92
2023/07/10 00:43:03;;;;;;;16.30;12.43;;;22.50;99.90;;;;;;5000605;28;20033;-91
2023/07/10 00:45:28;;;;;;;17.63;12.13;;;22.50;99.90;;;;;;5000305;28;20113;-92
2023/07/10 00:48:35;;;;;;;16.48;11.40;;;22.40;99.90;;;;;;4984437;28;20113;-92
2023/07/10 00:51:06;;;;;;;18.70;10.75;;;22.40;99.90;;;;;;4991743;28;20057;-92
2023/07/10 00:53:38;;;;;;;18.63;12.10;;;22.40;99.90;;;;;;5000810;28;20589;-92
2023/07/10 00:56:11;;;;;;;17.15;11.25;;;22.40;99.90;;;;;;4982956;28;20097;-92
2023/07/10 00:58:39;;;;;;;19.70;11.75;;;22.40;99.90;;;;;;5000496;28;20108;-92
2023/07/10 01:01:15;;;;;;;17.67;10.70;;;22.40;99.90;;;;;;5000401;28;20411;-92
2023/07/10 01:03:42;;;;;;;16.70;11.07;;;22.40;99.90;;;;;;5001418;28;20034;-91
2023/07/10 01:06:22;;;;;;;15.32;10.05;;;22.40;99.90;;;;;;4986645;28;20547;-91
2023/07/10 01:08:52;;;;;;;16.20;9.98;;;22.30;99.90;;;;;;5008400;28;20030;-90
2023/07/10 01:11:19;;;;;;;14.38;10.40;;;22.30;99.90;;;;;;5008132;28;20049;-90
2023/07/10 01:13:48;;;;;;;16.52;10.63;;;22.30;99.90;;;;;;5003226;28;20037;-90
2023/07/10 01:16:14;;;;;;;19.35;10.50;;;22.30;99.90;;;;;;5000013;28;20053;-90
2023/07/10 01:18:41;;;;;;;17.55;9.93;;;22.30;99.90;;;;;;4983779;28;20034;-88
2023/07/10 01:21:18;;;;;;;16.25;10.02;;;22.30;99.90;;;;;;4998360;28;20428;-88
2023/07/10 01:23:44;;;;;;;14.30;9.60;;;22.30;99.90;;;;;;4998975;28;20032;-88
2023/07/10 01:26:10;;;;;;;14.52;9.07;;;22.30;99.90;;;;;;4983285;28;20029;-88
2023/07/10 01:28:36;;;;;;;13.60;9.25;;;22.30;99.90;;;;;;4966973;28;20034;-88
2023/07/10 01:31:14;;;;;;;16.05;9.40;;;22.20;99.90;;;;;;4982988;28;20414;-88
2023/07/10 01:33:54;;;;;;;13.05;9.20;;;22.20;99.90;;;;;;4998838;28;20495;-88
2023/07/10 01:36:26;;;;;;;16.00;9.07;;;22.20;99.90;;;;;;4999703;28;20029;-91
2023/07/10 01:39:10;;;;;;;16.40;9.30;;;22.20;99.90;;;;;;4999740;28;20380;-92
2023/07/10 01:41:39;;;;;;;16.48;9.02;;;22.10;99.90;;;;;;4999699;28;20397;-92
2023/07/10 01:44:27;;;;;;;15.40;9.32;;;22.10;99.90;;;;;;4999831;28;20029;-92
2023/07/10 01:46:54;;;;;;;14.40;9.02;;;22.10;99.90;;;;;;4999482;28;20025;-93
2023/07/10 01:49:24;;;;;;;23.17;8.30;;;22.10;99.90;;;;;;4983715;28;20034;-91
2023/07/10 01:51:52;;;;;;;13.48;8.05;;;22.10;99.90;;;;;;5000786;28;20036;-93
2023/07/10 01:54:18;;;;;;;14.18;7.57;;;22.00;99.90;;;;;;5002217;28;20022;-93
2023/07/10 01:56:44;;;;;;;14.30;7.43;;;22.00;99.90;;;;;;4968904;28;20025;-92
2023/07/10 01:59:10;;;;;;;13.60;6.45;;;22.00;99.90;;;;;;5001341;28;20108;-92
2023/07/10 02:01:36;;;;;;;11.98;6.60;;;22.00;99.90;;;;;;4984637;28;20061;-91
2023/07/10 02:04:02;;;;;;;11.93;6.85;;;21.90;99.90;;;;;;4984452;28;20048;-92
2023/07/10 02:06:28;;;;;;;12.35;6.72;;;21.90;99.90;;;;;;5001099;28;20030;-92
2023/07/10 02:08:53;;;;;;;12.05;6.32;;;21.90;99.90;;;;;;4999737;28;20022;-90
2023/07/10 02:11:20;;;;;;;10.35;5.82;;;21.90;99.90;;;;;;4998908;28;20494;-90
2023/07/10 02:13:45;;;;;;;12.10;5.18;;;21.80;99.90;;;;;;4982621;28;20133;-90
2023/07/10 02:16:13;;;;;;;10.80;5.60;;;21.80;99.90;;;;;;4999068;28;20546;-90
2023/07/10 02:18:39;;;;;;;9.02;5.60;;;21.80;99.90;;;;;;4998759;28;20104;-92
2023/07/10 02:21:04;;;;;;;10.20;5.20;;;21.80;99.90;;;;;;4998985;28;20045;-88
2023/07/10 02:23:31;;;;;;;8.85;5.25;;;21.80;99.90;;;;;;4982120;28;20036;-88
2023/07/10 02:25:57;;;;;;;10.10;5.15;;;21.70;99.90;;;;;;4998067;28;20022;-88
2023/07/10 02:28:23;;;;;;;13.82;5.65;;;21.70;99.90;;;;;;4981584;28;20120;-89
2023/07/10 02:30:48;;;;;;;11.20;5.85;;;21.70;99.90;;;;;;4981481;28;20022;-88
2023/07/10 02:33:14;;;;;;;13.73;5.65;;;21.60;99.90;;;;;;4981852;28;20026;-88
2023/07/10 02:35:40;;;;;;;11.88;5.68;;;21.60;99.90;;;;;;4981922;28;20030;-87
2023/07/10 02:38:07;;;;;;;11.35;5.50;;;21.50;99.90;;;;;;4997757;28;20022;-88
2023/07/10 02:40:33;;;;;;;11.93;5.28;;;21.50;99.90;;;;;;4981621;28;20032;-88
2023/07/10 02:42:59;;;;;;;11.93;5.35;;;21.50;99.90;;;;;;4982406;28;20033;-90
2023/07/10 02:45:24;;;;;;;11.77;4.95;;;21.50;99.90;;;;;;4982345;28;20034;-91
2023/07/10 02:47:50;;;;;;;8.77;5.40;;;21.40;99.90;;;;;;4982183;28;20038;-90
2023/07/10 02:50:16;;;;;;;8.93;4.43;;;21.40;99.90;;;;;;4982263;28;20112;-90
2023/07/10 02:52:42;;;;;;;8.70;4.88;;;21.50;99.90;;;;;;4966322;28;20034;-91
2023/07/10 02:55:08;;;;;;;9.32;4.20;;;21.40;99.90;;;;;;4982081;28;20449;-89
2023/07/10 02:57:33;;;;;;;9.30;4.25;;;21.30;99.90;;;;;;4966061;28;20497;-90
2023/07/10 02:59:59;;;;;;;8.07;4.22;;;21.30;99.90;;;;;;4981833;28;20030;-90
2023/07/10 03:02:24;;;;;;;8.38;4.72;;;21.40;99.90;;;;;;4998591;28;20029;-90
2023/07/10 03:04:50;;;;;;;10.45;4.57;;;21.40;99.90;;;;;;4965863;28;20076;-91
2023/07/10 03:07:16;;;;;;;9.02;4.13;;;21.40;99.90;;;;;;4998516;28;20026;-91
2023/07/10 03:09:42;;;;;;;9.95;3.85;;;21.40;99.90;;;;;;4962310;28;20137;-91
2023/07/10 03:12:21;;;;;;;7.90;4.57;;;21.30;99.90;;;;;;4962377;28;20033;-91
2023/07/10 03:14:48;;;;;;;7.57;4.03;;;21.30;99.90;;;;;;4946173;28;20113;-92
2023/07/10 03:17:14;;;;;;;17.42;5.07;;;21.30;99.90;;;;;;4978626;28;20496;-92
2023/07/10 03:19:40;;;;;;;10.10;5.20;;;21.20;99.90;;;;;;4946426;28;20022;-93
2023/07/10 03:22:06;;;;;;;9.75;4.82;;;21.20;99.90;;;;;;4978587;28;20085;-92
2023/07/10 03:24:32;;;;;;;10.25;5.65;;;21.10;99.90;;;;;;4962341;28;20065;-92
2023/07/10 03:26:57;;;;;;;11.48;5.95;;;21.10;99.90;;;;;;4962220;28;20026;-92
2023/07/10 03:29:24;;;;;;;9.52;5.10;;;21.00;99.90;;;;;;4978167;28;20524;-92
2023/07/10 03:31:49;;;;;;;15.70;6.57;;;21.00;99.90;;;;;;4978007;28;20015;-88
2023/07/10 03:34:15;;;;;;;12.32;6.15;;;21.00;99.90;;;;;;4977177;28;20033;-88
2023/07/10 03:36:42;;;;;;;14.57;6.30;;;21.00;99.90;;;;;;4961230;28;20121;-89
2023/07/10 03:39:08;;;;;;;11.82;6.80;;;20.90;99.90;;;;;;4994587;28;20023;-87
2023/07/10 03:41:35;;;;;;;13.77;7.07;;;20.90;99.90;;;;;;4977081;28;20041;-88
2023/07/10 03:44:01;;;;;;;11.27;7.13;;;20.90;99.90;;;;;;4961004;28;20386;-89
2023/07/10 03:46:27;;;;;;;11.63;6.95;;;20.80;99.90;;;;;;4977500;28;20089;-88
2023/07/10 03:48:53;;;;;;;10.23;7.07;;;20.80;99.90;;;;;;4961274;28;20496;-88
2023/07/10 03:51:19;;;;;;;12.52;6.70;;;20.80;99.90;;;;;;4977465;28;20037;-88
2023/07/10 03:53:46;;;;;;;12.15;6.88;;;20.80;99.90;;;;;;4961519;28;20122;-93
2023/07/10 03:56:12;;;;;;;12.50;7.55;;;20.80;99.90;;;;;;4995338;28;20014;-92
2023/07/10 03:58:43;;;;;;;12.32;7.82;;;20.80;99.90;;;;;;4978006;28;20496;-92
2023/07/10 04:01:10;;;;;;;13.18;7.50;;;20.70;99.90;;;;;;4977765;28;20092;-92
2023/07/10 04:03:37;;;;;;;14.23;8.23;;;20.70;99.90;;;;;;4978111;28;20065;-92
2023/07/10 04:06:04;;;;;;;12.77;8.27;;;20.70;99.90;;;;;;4978729;28;20389;-92
2023/07/10 04:08:38;;;;;;;12.02;7.43;;;20.70;99.90;;;;;;4963696;28;20079;-92
2023/07/10 04:11:12;;;;;;;12.10;7.50;;;20.70;99.90;;;;;;4963782;28;20046;-92
2023/07/10 04:13:38;;;;;;;12.57;7.63;;;20.60;99.90;;;;;;4979200;28;20018;-92
2023/07/10 04:16:23;;;;;;;12.15;6.82;;;20.60;99.90;;;;;;4963748;28;20027;-91
2023/07/10 04:18:51;;;;;;;10.85;6.68;;;20.60;99.90;;;;;;4978958;28;20034;-92
2023/07/10 04:21:20;;;;;;;10.73;7.13;;;20.60;99.90;;;;;;4978775;28;20029;-88
2023/07/10 04:23:46;;;;;;;17.27;7.45;;;20.50;99.90;;;;;;4967351;28;20062;-89
2023/07/10 04:26:27;;;;;;;11.27;6.93;;;20.50;99.90;;;;;;4957375;28;20027;-88
2023/07/10 04:28:56;;;;;;;11.25;6.97;;;20.50;99.90;;;;;;4975614;28;20029;-89
2023/07/10 04:31:23;;;;;;;10.65;6.38;;;20.50;99.90;;;;;;4957393;28;20014;-89
2023/07/10 04:33:50;;;;;;;9.02;6.50;;;20.50;99.90;;;;;;4957675;28;20023;-88
2023/07/10 04:36:16;;;;;;;12.63;6.03;;;20.40;99.90;;;;;;4950846;28;20030;-89
2023/07/10 04:38:42;;;;;;;8.35;5.22;;;20.40;99.90;;;;;;4980744;28;20030;-91
2023/07/10 04:41:11;;;;;;;12.57;5.20;;;20.40;99.90;;;;;;4963813;28;20096;-91
2023/07/10 04:43:36;;;;;;;10.70;4.95;;;20.40;99.90;;;;;;4965231;28;20027;-90
2023/07/10 04:46:04;;;;;;;13.40;5.38;;;20.30;99.90;;;;;;4995898;28;20034;-89
2023/07/10 04:48:31;;;;;;;9.50;4.55;;;20.30;99.90;;;;;;4977759;28;20041;-91
2023/07/10 04:51:02;;;;;;;8.90;4.28;;;20.30;99.90;;;;;;4977445;28;20034;-91
2023/07/10 04:53:29;;;;;;;12.73;4.50;;;20.30;99.90;;;;;;4977636;28;20018;-91
2023/07/10 04:55:56;;;;;;;8.88;4.55;;;20.30;99.90;;;;;;4977463;28;20465;-90
2023/07/10 04:58:23;;;;;;;11.07;4.38;;;20.30;99.90;;;;;;4981315;28;20022;-92
2023/07/10 05:00:54;;;;;;;9.13;4.85;;;20.30;99.90;;;;;;4981489;28;20058;-92
2023/07/10 05:03:21;;;;;;;8.43;4.22;;;20.20;99.90;;;;;;4981795;28;20050;-92
2023/07/10 05:05:56;;;;;;;10.48;4.50;;;20.20;99.90;;;;;;4977778;28;20026;-90
2023/07/10 05:08:23;;;;;;;9.25;4.75;;;20.20;99.90;;;;;;4980799;28;20030;-90
2023/07/10 05:10:50;;;;;;;8.82;4.57;;;20.20;99.90;;;;;;4958796;28;20486;-89
2023/07/10 05:13:18;;;;;;;10.77;5.28;;;20.20;99.90;;;;;;4998038;28;20026;-91
2023/07/10 05:15:43;;;;;;;8.93;4.43;;;20.20;99.90;;;;;;4949485;28;20359;-91
2023/07/10 05:18:09;;;;;;;10.43;4.78;;;20.10;99.90;;;;;;4965183;28;20033;-91
2023/07/10 05:20:35;;;;;;;10.57;4.97;;;20.20;99.90;;;;;;4973378;28;20022;-92
2023/07/10 05:23:00;;;;;;;12.55;5.22;;;20.20;99.90;;;;;;4965906;28;20034;-91
2023/07/10 05:25:26;;;;;;;10.32;4.88;;;20.20;99.90;;;;;;4982129;28;20038;-91
2023/07/10 05:27:52;;;;;;;10.02;4.88;;;20.20;99.90;;;;;;4948754;28;20389;-88
2023/07/10 05:30:18;;;;;;;12.63;5.28;;;20.20;99.90;;;;;;4966429;28;20027;-90
2023/07/10 05:32:44;;;;;;;12.35;4.97;;;20.10;99.90;;;;;;4999267;28;20023;-91
2023/07/10 05:35:09;;;;;;;9.30;4.70;;;20.20;99.90;;;;;;4948896;28;20036;-89
2023/07/10 05:37:35;;;;;;;10.27;4.70;;;20.20;99.90;;;;;;4964368;28;20037;-89
2023/07/10 05:40:01;;;;;;;9.52;5.15;;;20.20;99.90;;;;;;4981763;28;20037;-90
2023/07/10 05:42:26;;;;;;;10.43;4.88;;;20.20;99.90;;;;;;4965233;28;20096;-90
2023/07/10 05:44:52;;;;;;;10.13;5.13;;;20.10;99.90;;;;;;4964913;28;20037;-88
2023/07/10 05:47:17;;;;;;;9.63;4.68;;;20.20;99.90;;;;;;4963065;28;20033;-87
2023/07/10 05:49:43;;;;;;;8.43;4.88;;;20.20;99.90;;;;;;4963192;28;20050;-87
2023/07/10 05:52:09;;;;;;;9.80;4.75;;;20.10;99.90;;;;;;4962778;28;20438;-87
2023/07/10 05:54:35;;;;;;;11.82;5.32;;;20.20;99.90;;;;;;4979499;28;20033;-87
2023/07/10 05:57:00;;;;;;;10.25;4.90;;;20.20;99.90;;;;;;4979431;28;20018;-87
2023/07/10 05:59:26;;;;;;;11.50;5.57;;;20.20;99.90;;;;;;4963481;28;20170;-87
2023/07/10 06:01:52;;;;;;;11.65;4.90;;;20.20;99.90;;;;;;4979985;28;20385;-91
2023/07/10 06:04:18;;;;;;;11.15;5.07;;;20.20;99.90;;;;;;4948151;28;20036;-88
2023/07/10 06:06:45;;;;;;;8.95;4.65;;;20.20;99.90;;;;;;4963350;28;20042;-88
2023/07/10 06:09:11;;;;;;;10.07;4.90;;;20.30;99.90;;;;;;4962878;28;20036;-88
2023/07/10 06:11:37;;;;;;;9.77;4.43;;;20.30;99.90;;;;;;4981923;28;20049;-88
2023/07/10 06:14:03;;;;;;;9.18;4.10;;;20.30;99.90;;;;;;4966038;28;20516;-88
2023/07/10 06:16:29;;;;;;;10.10;4.35;;;20.30;99.90;;;;;;4983126;28;20065;-88
2023/07/10 06:18:54;;;;;;;10.98;3.83;;;20.30;99.90;;;;;;4981193;28;20038;-88
2023/07/10 06:21:20;;;;;;;9.80;4.20;;;20.30;99.90;;;;;;4982102;28;20060;-89
2023/07/10 06:23:45;;;;;;;8.10;3.28;;;20.40;99.90;;;;;;4986004;28;20025;-89
2023/07/10 06:26:13;;;;;;;12.88;4.32;;;20.40;99.90;;;;;;4962372;28;20121;-88
2023/07/10 06:28:38;;;;;;;10.95;3.65;;;20.40;99.90;;;;;;4962724;28;20033;-88
2023/07/10 06:31:06;;;;;;;7.97;2.63;;;20.40;99.90;;;;;;4962137;28;20030;-87
2023/07/10 06:33:33;;;;;;;7.30;2.90;;;20.50;99.90;;;;;;4978405;28;20101;-87
2023/07/10 06:35:59;;;;;;;8.27;2.70;;;20.50;99.90;;;;;;4978481;28;20022;-88
2023/07/10 06:38:25;;;;;;;8.98;3.38;;;20.50;99.90;;;;;;4977937;28;20050;-87
2023/07/10 06:40:52;;;;;;;11.48;3.75;;;20.50;99.90;;;;;;4962156;28;20027;-88
2023/07/10 06:43:20;;;;;;;9.32;3.40;;;20.50;99.90;;;;;;4962154;28;20035;-88
2023/07/10 06:45:46;;;;;;;7.75;2.70;;;20.60;99.90;;;;;;4978671;28;20030;-87
2023/07/10 06:48:12;;;;;;;6.35;2.35;;;20.70;99.90;;;;;;4978401;28;20027;-88
2023/07/10 06:50:38;;;;;;;8.00;3.17;;;20.70;99.90;;;;;;4978758;28;20018;-87
2023/07/10 06:53:04;;;;;;;9.27;2.70;;;20.70;99.90;;;;;;4979128;28;20073;-89
2023/07/10 06:55:30;;;;;;;7.43;2.53;;;20.70;99.90;;;;;;4963506;28;20050;-90
2023/07/10 06:57:55;;;;;;;5.18;2.28;;;20.80;99.90;;;;;;4978581;28;20038;-90
2023/07/10 07:00:21;;;;;;;10.60;3.10;;;20.80;99.90;;;;;;4963134;28;20493;-90
2023/07/10 07:02:47;;;;;;;8.23;2.83;;;20.80;99.90;;;;;;4998730;28;20033;-90
2023/07/10 07:05:13;;;;;;;4.60;2.20;;;20.90;99.90;;;;;;4981978;28;20026;-89
2023/07/10 07:07:39;;;;;;;8.15;2.67;;;21.00;99.90;;;;;;4981146;28;20473;-89
2023/07/10 07:10:08;;;;;;;5.95;2.00;;;21.00;99.90;;;;;;4981684;28;20049;-89
2023/07/10 07:12:34;;;;;;;9.25;2.22;;;21.00;99.90;;;;;;4997564;28;20453;-89
2023/07/10 07:15:00;;;;;;;10.35;2.30;;;21.10;99.90;;;;;;4997647;28;20018;-88
2023/07/10 07:17:26;;;;;;;9.65;2.10;;;21.10;99.90;;;;;;4981345;28;20124;-89
2023/07/10 07:19:51;;;;;;;9.80;2.13;;;21.10;99.90;;;;;;4980863;28;20034;-89
2023/07/10 07:22:17;;;;;;;6.18;2.10;;;21.10;99.90;;;;;;4965177;28;20037;-89
2023/07/10 07:24:43;;;;;;;8.57;2.40;;;21.20;99.90;;;;;;4981112;28;20026;-89
2023/07/10 07:27:09;;;;;;;10.20;2.50;;;21.20;99.90;;;;;;4981486;28;20018;-89
2023/07/10 07:29:53;;;;;;;8.98;2.88;;;21.30;99.90;;;;;;4964905;28;20029;-89
2023/07/10 07:32:28;;;;;;;12.30;2.45;;;21.30;99.90;;;;;;4997399;28;20018;-89
2023/07/10 07:34:54;;;;;;;8.32;2.00;;;21.30;99.90;;;;;;4965051;28;20121;-89
2023/07/10 07:37:20;;;;;;;8.52;2.47;;;21.30;99.90;;;;;;4980953;28;20065;-89
2023/07/10 07:39:45;;;;;;;12.52;2.53;;;21.40;99.90;;;;;;4997450;28;20054;-88
2023/07/10 07:42:11;;;;;;;11.23;2.67;;;21.40;99.90;;;;;;4981155;28;20026;-91
2023/07/10 07:44:37;;;;;;;9.80;2.60;;;21.40;99.90;;;;;;4965351;28;20054;-92
2023/07/10 07:47:02;;;;;;;9.38;2.88;;;21.50;99.90;;;;;;4982661;28;20056;-92
2023/07/10 07:49:28;;;;;;;10.77;2.67;;;21.50;99.90;;;;;;4967068;28;20037;-93
2023/07/10 07:51:54;;;;;;;8.68;2.97;;;21.50;99.90;;;;;;4981745;28;20413;-92
2023/07/10 07:54:19;;;;;;;11.15;2.53;;;21.50;99.90;;;;;;4965593;28;20022;-92
2023/07/10 07:56:45;;;;;;;10.65;2.75;;;21.60;99.90;;;;;;4980044;28;20026;-92
2023/07/10 07:59:11;;;;;;;7.60;2.40;;;21.60;99.90;;;;;;4983216;28;20025;-91
2023/07/10 08:01:36;;;;;;;7.30;2.13;;;21.60;99.90;;;;;;4965482;28;20125;-91
2023/07/10 08:04:03;;;;;;;9.13;2.58;;;21.70;99.90;;;;;;4965448;28;20121;-91
2023/07/10 08:06:31;;;;;;;9.18;2.53;;;21.70;99.90;;;;;;4981611;28;20030;-91
2023/07/10 08:08:57;;;;;;;6.57;2.03;;;21.80;99.90;;;;;;4981234;28;20029;-90
2023/07/10 08:11:23;;;;;;;13.02;2.53;;;21.80;99.90;;;;;;4980781;28;20050;-90
2023/07/10 08:13:49;;;;;;;9.52;2.47;;;21.90;99.90;;;;;;4980793;28;20018;-90
2023/07/10 08:16:15;;;;;;;7.10;2.25;;;21.90;99.90;;;;;;4981078;28;20033;-92
2023/07/10 08:18:41;;;;;;;9.68;2.63;;;22.00;99.90;;;;;;4998320;28;20062;-92
2023/07/10 08:21:10;;;;;;;10.60;2.72;;;22.00;99.90;;;;;;4981116;28;20057;-92
2023/07/10 08:23:36;;;;;;;10.05;2.45;;;22.10;99.90;;;;;;4997490;28;20465;-91
2023/07/10 08:26:03;;;;;;;10.73;2.40;;;22.10;99.90;;;;;;4997322;28;20033;-92
2023/07/10 08:28:29;;;;;;;7.22;2.15;;;22.20;99.90;;;;;;4981232;28;20209;-92
2023/07/10 08:30:55;;;;;;;9.10;2.95;;;22.30;99.90;;;;;;4982449;28;20030;-92
2023/07/10 08:33:21;;;;;;;8.75;2.22;;;22.30;99.90;;;;;;5001218;28;20512;-92
2023/07/10 08:35:57;;;;;;;6.50;1.75;;;22.30;99.90;;;;;;4968869;28;20041;-92
2023/07/10 08:38:23;;;;;;;6.80;1.98;;;22.40;99.90;;;;;;5000595;28;20058;-92
2023/07/10 08:41:14;;;;;;;8.52;1.90;;;22.40;99.90;;;;;;5000499;28;20033;-92
2023/07/10 08:43:41;;;;;;;15.38;2.38;;;22.40;99.90;;;;;;5000880;28;20029;-92
2023/07/10 08:46:21;;;;;;;6.47;2.35;;;22.50;99.90;;;;;;4984618;28;20042;-91
2023/07/10 08:48:59;;;;;;;9.60;2.55;;;22.60;99.90;;;;;;5000542;28;20419;-89
2023/07/10 08:51:43;;;;;;;6.95;2.17;;;22.60;99.90;;;;;;4999816;28;20369;-89
2023/07/10 08:54:12;;;;;;;9.07;2.78;;;22.70;99.90;;;;;;4999822;28;20432;-89
2023/07/10 08:56:52;;;;;;;9.15;2.85;;;22.70;99.90;;;;;;4999613;28;20453;-88
2023/07/10 08:59:24;;;;;;;8.03;2.33;;;22.70;99.90;;;;;;4999734;28;20032;-90
2023/07/10 09:01:50;;;;;;;8.70;2.72;;;22.70;99.90;;;;;;4999424;28;20033;-89
2023/07/10 09:04:18;;;;;;;10.13;2.30;;;22.80;99.90;;;;;;4983518;28;20030;-90
2023/07/10 09:07:03;;;;;;;6.43;2.10;;;22.80;99.90;;;;;;5000709;28;20080;-89
2023/07/10 09:09:43;;;;;;;9.00;2.80;;;22.90;99.90;;;;;;4968002;28;20026;-90
2023/07/10 09:12:14;;;;;;;8.27;2.47;;;22.90;99.90;;;;;;5000071;28;20081;-90
2023/07/10 09:14:58;;;;;;;10.02;3.00;;;23.00;99.90;;;;;;5000058;28;20026;-90
2023/07/10 09:17:50;;;;;;;7.22;2.20;;;23.00;99.90;;;;;;5000262;28;20107;-90
2023/07/10 09:20:25;;;;;;;8.70;2.55;;;23.10;99.90;;;;;;4999871;28;20410;-90
2023/07/10 09:23:14;;;;;;;9.82;2.60;;;23.10;99.90;;;;;;4990723;28;20384;-88
2023/07/10 09:25:40;;;;;;;11.10;2.78;;;23.20;99.90;;;;;;4997979;28;20040;-88
2023/07/10 09:28:06;;;;;;;7.00;2.20;;;23.30;99.90;;;;;;4991329;28;20085;-89
2023/07/10 09:31:09;;;;;;;10.38;2.22;;;23.30;99.90;;;;;;4988607;28;20037;-88
2023/07/10 09:33:49;;;;;;;7.25;2.30;;;23.30;99.90;;;;;;5027082;28;20022;-88
2023/07/10 09:36:16;;;;;;;;;;;23.40;99.90;;;;;;5008016;28;20089;-88
2023/07/10 09:38:46;;;;;;;9.75;2.22;;;23.50;99.90;;;;;;4987413;28;19916;-89
2023/07/10 09:41:13;;;;;;;;;;;23.50;99.90;;;;;;4999451;28;20429;-89
2023/07/10 09:43:49;;;;;;;8.30;2.22;;;23.50;99.90;;;;;;4998827;28;20341;-89
2023/07/10 09:46:15;;;;;;;7.28;2.50;;;23.50;99.90;;;;;;4999696;28;20018;-89
2023/07/10 09:48:40;;;;;;;7.65;1.90;;;23.60;99.90;;;;;;4982742;28;20030;-89
2023/07/10 09:51:12;;;;;;;5.35;2.00;;;23.60;99.90;;;;;;4966913;28;20022;-89
2023/07/10 09:53:45;;;;;;;6.88;2.53;;;23.60;99.90;;;;;;4983206;28;20042;-90
2023/07/10 09:56:27;;;;;;;9.05;3.03;;;23.70;99.90;;;;;;4999337;28;20113;-91
2023/07/10 09:58:56;;;;;;;10.45;2.72;;;23.70;99.90;;;;;;4998827;28;20030;-89
2023/07/10 10:01:31;;;;;;;6.57;1.77;;;23.80;99.90;;;;;;4983383;28;20056;-91
2023/07/10 10:04:00;;;;;;;7.47;2.42;;;23.80;99.90;;;;;;4978599;28;20034;-91
2023/07/10 10:06:29;;;;;;;7.55;2.05;;;23.80;99.90;;;;;;4998750;28;20453;-91
2023/07/10 10:08:55;;;;;;;7.65;2.30;;;23.90;99.90;;;;;;4998591;28;20535;-91
2023/07/10 10:11:46;;;;;;;9.52;2.53;;;23.90;99.90;;;;;;4962986;28;20050;-90
2023/07/10 10:14:22;;;;;;;9.20;2.53;;;23.90;99.90;;;;;;4978820;28;20117;-89
2023/07/10 10:16:57;;;;;;;8.20;2.10;;;24.00;99.90;;;;;;4978699;28;20465;-89
2023/07/10 10:19:35;;;;;;;10.30;2.60;;;24.00;99.90;;;;;;4978815;28;20026;-89
2023/07/10 10:22:08;;;;;;;7.80;2.20;;;24.00;99.90;;;;;;4978635;28;20034;-89
2023/07/10 10:25:13;;;;;;;8.48;2.50;;;24.10;99.90;;;;;;4978552;28;20080;-89
2023/07/10 10:27:42;;;;;;;8.77;2.40;;;24.10;99.90;;;;;;4978528;28;20029;-89
2023/07/10 10:30:15;;;;;;;5.93;2.35;;;24.10;99.90;;;;;;4995804;28;20026;-88
2023/07/10 10:32:40;;;;;;;8.43;1.70;;;24.20;99.90;;;;;;4978363;28;20022;-88
2023/07/10 10:35:43;;;;;;;8.68;2.00;;;24.20;99.90;;;;;;4978646;28;20126;-88
2023/07/10 10:38:35;;;;;;;6.40;1.77;;;24.20;99.90;;;;;;4995706;28;20080;-88
2023/07/10 10:41:34;;;;;;;10.00;2.35;;;24.30;99.90;;;;;;4978356;28;20385;-89
2023/07/10 10:44:18;;;;;;;6.20;2.25;;;24.30;99.90;;;;;;4986274;28;20133;-88
2023/07/10 10:47:05;;;;;;;10.93;2.45;;;24.30;99.90;;;;;;4978917;28;20026;-89
2023/07/10 10:49:37;;;;;;;5.85;1.95;;;24.30;99.90;;;;;;4995454;28;20114;-89
2023/07/10 10:52:41;;;;;;;9.57;1.98;;;24.40;99.90;;;;;;4978496;28;20033;-89
2023/07/10 10:56:03;;;;;;;7.82;2.35;;;24.50;99.90;;;;;;4979899;28;20361;-88
2023/07/10 10:59:07;;;;;;;6.07;2.05;;;24.50;99.90;;;;;;4935576;29;20043;-89
2023/07/10 11:01:53;;;;;;;6.93;2.40;;;24.60;99.90;;;;;;4935602;29;20039;-92
2023/07/10 11:04:28;;;;;;;8.05;2.33;;;24.60;99.90;;;;;;4973066;28;20030;-91
2023/07/10 11:07:01;;;;;;;8.70;2.97;;;24.60;99.90;;;;;;4979763;28;20018;-89
2023/07/10 11:09:32;;;;;;;8.57;2.33;;;24.70;99.90;;;;;;4979788;28;20433;-89
2023/07/10 11:11:59;;;;;;;7.72;2.20;;;24.80;99.90;;;;;;4997908;28;20042;-89
2023/07/10 11:14:27;;;;;;;9.63;2.20;;;24.80;99.90;;;;;;4981589;28;20054;-89
2023/07/10 11:16:54;;;;;;;6.60;1.92;;;24.80;99.90;;;;;;4981880;28;20018;-89
2023/07/10 11:19:31;;;;;;;8.55;2.28;;;24.80;99.90;;;;;;4979111;28;20089;-88
2023/07/10 11:22:21;;;;;;;10.95;2.60;;;24.80;99.90;;;;;;4979386;28;20062;-88
2023/07/10 11:24:51;;;;;;;11.02;2.30;;;24.80;99.90;;;;;;4977827;28;20064;-88
2023/07/10 11:27:41;;;;;;;9.27;2.65;;;24.90;99.90;;;;;;4962223;28;20129;-90
2023/07/10 11:30:13;;;;;;;10.88;2.67;;;24.90;99.90;;;;;;4978385;28;20046;-90
2023/07/10 11:33:20;;;;;;;9.35;3.03;;;25.00;99.90;;;;;;4978103;28;20018;-90
2023/07/10 11:36:15;;;;;;;6.30;2.05;;;25.00;99.90;;;;;;4962858;28;20026;-90
2023/07/10 11:39:07;;;;;;;10.25;2.65;;;25.00;99.90;;;;;;4981449;28;20533;-90
2023/07/10 11:41:57;;;;;;;9.07;2.42;;;25.00;99.90;;;;;;4980704;28;20026;-90
2023/07/10 11:44:29;;;;;;;8.35;2.15;;;25.00;99.90;;;;;;4932683;28;20038;-89
2023/07/10 11:47:00;;;;;;;9.30;2.80;;;25.00;99.90;;;;;;4981042;28;20085;-90
2023/07/10 11:49:35;;;;;;;7.20;2.00;;;25.00;99.90;;;;;;4981870;28;20073;-90
2023/07/10 11:52:11;;;;;;;10.40;2.78;;;25.10;99.90;;;;;;4981204;28;20046;-90
2023/07/10 11:54:39;;;;;;;9.82;2.60;;;25.10;99.90;;;;;;4977987;28;20019;-90
2023/07/10 11:57:07;;;;;;;9.15;2.30;;;25.10;99.90;;;;;;4978023;28;20022;-89
2023/07/10 11:59:58;;;;;;;8.25;2.30;;;25.20;99.90;;;;;;4978077;28;20033;-90
2023/07/10 12:02:35;;;;;;;8.32;2.13;;;25.20;99.90;;;;;;4977032;28;20045;-89
2023/07/10 12:05:21;;;;;;;7.70;2.17;;;25.30;99.90;;;;;;4977703;28;20109;-90
2023/07/10 12:08:04;;;;;;;7.25;2.47;;;25.20;99.90;;;;;;4981707;28;20580;-89
2023/07/10 12:10:36;;;;;;;7.95;2.20;;;25.20;99.90;;;;;;4981852;28;20057;-89
2023/07/10 12:13:09;;;;;;;9.20;2.88;;;25.20;99.90;;;;;;4981796;28;20045;-91
2023/07/10 12:15:36;;;;;;;6.35;2.17;;;25.20;99.90;;;;;;4981748;28;20026;-90
2023/07/10 12:18:07;;;;;;;12.50;2.95;;;25.20;99.90;;;;;;4950383;28;20037;-90
2023/07/10 12:20:32;;;;;;;7.95;2.40;;;25.30;99.90;;;;;;4981750;28;20030;-90
2023/07/10 12:23:13;;;;;;;7.03;2.00;;;25.20;99.90;;;;;;4965822;28;20037;-89
2023/07/10 12:25:50;;;;;;;10.30;2.25;;;25.20;99.90;;;;;;4981252;28;20493;-89
2023/07/10 12:28:17;;;;;;;10.85;2.53;;;25.30;99.90;;;;;;4981157;28;20540;-89
2023/07/10 12:30:50;;;;;;;5.95;2.20;;;25.30;99.90;;;;;;4965355;28;20030;-88
2023/07/10 12:33:39;;;;;;;8.77;2.35;;;25.30;99.90;;;;;;4981202;28;20022;-88
2023/07/10 12:36:31;;;;;;;7.88;2.63;;;25.30;99.90;;;;;;4980951;28;20018;-89
2023/07/10 12:39:00;;;;;;;5.70;1.98;;;25.40;99.90;;;;;;4981086;28;20098;-89
2023/07/10 12:41:31;;;;;;;10.00;2.40;;;25.40;99.90;;;;;;4981252;28;20022;-89
2023/07/10 12:43:57;;;;;;;7.97;2.33;;;25.40;99.90;;;;;;4983105;28;20030;-88
2023/07/10 12:46:28;;;;;;;6.47;2.00;;;25.50;99.90;;;;;;4980979;28;20077;-88
2023/07/10 12:48:59;;;;;;;5.85;2.42;;;25.50;99.90;;;;;;4998291;28;20118;-88
2023/07/10 12:51:32;;;;;;;5.65;1.83;;;25.50;99.90;;;;;;4980937;28;20022;-89
2023/07/10 12:54:00;;;;;;;8.57;1.90;;;25.60;99.90;;;;;;4998034;28;20027;-89
2023/07/10 12:56:35;;;;;;;6.32;1.98;;;25.70;99.90;;;;;;4980947;28;20351;-88
2023/07/10 12:59:18;;;;;;;9.25;2.05;;;25.70;99.90;;;;;;4980559;28;20076;-89